sensor_id;sensor_type;location;lat;lon;timestamp;P1;P2;P0
80643;PMS5003;70010;60.224;24.712;2023-12-22T00:00:54;17;10;
80643;PMS5003;70010;60.224;24.712;2023-12-22T00:03:20;14;9;
80643;PMS5003;70010;60.224;24.712;2023-12-22T00:05:45;9;6;
80643;PMS5003;70010;60.224;24.712;2023-12-22T00:08:10;13;11;
80643;PMS5003;70010;60.224;24.712;2023-12-22T00:10:36;11;9;
80643;PMS5003;70010;60.224;24.712;2023-12-22T00:13:01;20;13;
80643;PMS5003;70010;60.224;24.712;2023-12-22T00:15:27;10;8;
80643;PMS5003;70010;60.224;24.712;2023-12-22T00:17:52;10;9;
80643;PMS5003;70010;60.224;24.712;2023-12-22T00:20:18;13;8;
80643;PMS5003;70010;60.224;24.712;2023-12-22T00:22:42;16;10;
80643;PMS5003;70010;60.224;24.712;2023-12-22T00:25:08;12;9;
80643;PMS5003;70010;60.224;24.712;2023-12-22T00:27:33;11;9;
80643;PMS5003;70010;60.224;24.712;2023-12-22T00:29:58;8;8;
80643;PMS5003;70010;60.224;24.712;2023-12-22T00:32:23;10;10;
80643;PMS5003;70010;60.224;24.712;2023-12-22T00:34:49;9;8;
80643;PMS5003;70010;60.224;24.712;2023-12-22T00:37:14;9;7;
80643;PMS5003;70010;60.224;24.712;2023-12-22T00:39:40;15;12;
80643;PMS5003;70010;60.224;24.712;2023-12-22T00:42:05;14;9;
80643;PMS5003;70010;60.224;24.712;2023-12-22T00:44:30;16;10;
80643;PMS5003;70010;60.224;24.712;2023-12-22T00:46:55;16;11;
80643;PMS5003;70010;60.224;24.712;2023-12-22T00:49:21;15;10;
80643;PMS5003;70010;60.224;24.712;2023-12-22T00:51:46;9;9;
80643;PMS5003;70010;60.224;24.712;2023-12-22T00:54:11;16;8;
80643;PMS5003;70010;60.224;24.712;2023-12-22T00:56:37;10;9;
80643;PMS5003;70010;60.224;24.712;2023-12-22T00:59:02;20;10;
80643;PMS5003;70010;60.224;24.712;2023-12-22T01:01:27;18;9;
80643;PMS5003;70010;60.224;24.712;2023-12-22T01:03:52;17;10;
80643;PMS5003;70010;60.224;24.712;2023-12-22T01:06:17;13;12;
80643;PMS5003;70010;60.224;24.712;2023-12-22T01:08:43;15;11;
80643;PMS5003;70010;60.224;24.712;2023-12-22T01:11:07;21;10;
80643;PMS5003;70010;60.224;24.712;2023-12-22T01:13:33;16;13;
80643;PMS5003;70010;60.224;24.712;2023-12-22T01:15:59;14;10;
80643;PMS5003;70010;60.224;24.712;2023-12-22T01:18:25;14;11;
80643;PMS5003;70010;60.224;24.712;2023-12-22T01:20:50;13;11;
80643;PMS5003;70010;60.224;24.712;2023-12-22T01:23:15;16;12;
80643;PMS5003;70010;60.224;24.712;2023-12-22T01:25:40;14;12;
80643;PMS5003;70010;60.224;24.712;2023-12-22T01:28:06;17;13;
80643;PMS5003;70010;60.224;24.712;2023-12-22T01:30:31;22;11;
80643;PMS5003;70010;60.224;24.712;2023-12-22T01:32:57;14;9;
80643;PMS5003;70010;60.224;24.712;2023-12-22T01:35:22;13;9;
80643;PMS5003;70010;60.224;24.712;2023-12-22T01:37:48;14;12;
80643;PMS5003;70010;60.224;24.712;2023-12-22T01:40:14;11;8;
80643;PMS5003;70010;60.224;24.712;2023-12-22T01:42:39;13;10;
80643;PMS5003;70010;60.224;24.712;2023-12-22T01:45:05;13;10;
80643;PMS5003;70010;60.224;24.712;2023-12-22T01:47:30;19;11;
80643;PMS5003;70010;60.224;24.712;2023-12-22T01:49:55;18;11;
80643;PMS5003;70010;60.224;24.712;2023-12-22T01:52:21;12;10;
80643;PMS5003;70010;60.224;24.712;2023-12-22T01:54:47;13;11;
80643;PMS5003;70010;60.224;24.712;2023-12-22T01:57:13;20;10;
80643;PMS5003;70010;60.224;24.712;2023-12-22T01:59:38;15;13;
80643;PMS5003;70010;60.224;24.712;2023-12-22T02:02:04;24;14;
80643;PMS5003;70010;60.224;24.712;2023-12-22T02:04:30;15;11;
80643;PMS5003;70010;60.224;24.712;2023-12-22T02:06:55;26;14;
80643;PMS5003;70010;60.224;24.712;2023-12-22T02:09:21;19;12;
80643;PMS5003;70010;60.224;24.712;2023-12-22T02:11:47;13;11;
80643;PMS5003;70010;60.224;24.712;2023-12-22T02:14:12;17;10;
80643;PMS5003;70010;60.224;24.712;2023-12-22T02:16:39;16;9;
80643;PMS5003;70010;60.224;24.712;2023-12-22T02:19:06;12;12;
80643;PMS5003;70010;60.224;24.712;2023-12-22T02:21:29;18;7;
80643;PMS5003;70010;60.224;24.712;2023-12-22T02:23:54;12;9;
80643;PMS5003;70010;60.224;24.712;2023-12-22T02:26:22;12;10;
80643;PMS5003;70010;60.224;24.712;2023-12-22T02:28:44;12;10;
80643;PMS5003;70010;60.224;24.712;2023-12-22T02:31:11;11;7;
80643;PMS5003;70010;60.224;24.712;2023-12-22T02:33:35;17;10;
80643;PMS5003;70010;60.224;24.712;2023-12-22T02:36:02;14;10;
80643;PMS5003;70010;60.224;24.712;2023-12-22T02:38:25;9;9;
80643;PMS5003;70010;60.224;24.712;2023-12-22T02:40:51;11;9;
80643;PMS5003;70010;60.224;24.712;2023-12-22T02:43:16;7;7;
80643;PMS5003;70010;60.224;24.712;2023-12-22T02:45:41;11;10;
80643;PMS5003;70010;60.224;24.712;2023-12-22T02:48:07;16;11;
80643;PMS5003;70010;60.224;24.712;2023-12-22T02:50:32;14;9;
80643;PMS5003;70010;60.224;24.712;2023-12-22T02:52:57;13;10;
80643;PMS5003;70010;60.224;24.712;2023-12-22T02:55:22;8;7;
80643;PMS5003;70010;60.224;24.712;2023-12-22T02:57:48;8;8;
80643;PMS5003;70010;60.224;24.712;2023-12-22T03:00:13;11;10;
80643;PMS5003;70010;60.224;24.712;2023-12-22T03:02:38;8;7;
80643;PMS5003;70010;60.224;24.712;2023-12-22T03:05:04;12;9;
80643;PMS5003;70010;60.224;24.712;2023-12-22T03:07:29;10;9;
80643;PMS5003;70010;60.224;24.712;2023-12-22T03:09:54;10;8;
80643;PMS5003;70010;60.224;24.712;2023-12-22T03:12:19;8;8;
80643;PMS5003;70010;60.224;24.712;2023-12-22T03:14:44;12;9;
80643;PMS5003;70010;60.224;24.712;2023-12-22T03:17:09;16;9;
80643;PMS5003;70010;60.224;24.712;2023-12-22T03:19:35;9;8;
80643;PMS5003;70010;60.224;24.712;2023-12-22T03:22:00;9;6;
80643;PMS5003;70010;60.224;24.712;2023-12-22T03:24:26;14;9;
80643;PMS5003;70010;60.224;24.712;2023-12-22T03:26:51;10;10;
80643;PMS5003;70010;60.224;24.712;2023-12-22T03:29:16;7;7;
80643;PMS5003;70010;60.224;24.712;2023-12-22T03:31:41;7;7;
80643;PMS5003;70010;60.224;24.712;2023-12-22T03:34:07;7;6;
80643;PMS5003;70010;60.224;24.712;2023-12-22T03:36:32;13;7;
80643;PMS5003;70010;60.224;24.712;2023-12-22T03:38:57;8;7;
80643;PMS5003;70010;60.224;24.712;2023-12-22T03:41:23;8;6;
80643;PMS5003;70010;60.224;24.712;2023-12-22T03:43:49;7;6;
80643;PMS5003;70010;60.224;24.712;2023-12-22T03:46:14;11;6;
80643;PMS5003;70010;60.224;24.712;2023-12-22T03:48:40;15;5;
80643;PMS5003;70010;60.224;24.712;2023-12-22T03:51:05;11;6;
80643;PMS5003;70010;60.224;24.712;2023-12-22T03:53:31;4;4;
80643;PMS5003;70010;60.224;24.712;2023-12-22T03:55:57;9;6;
80643;PMS5003;70010;60.224;24.712;2023-12-22T03:58:23;4;4;
80643;PMS5003;70010;60.224;24.712;2023-12-22T04:00:48;11;6;
80643;PMS5003;70010;60.224;24.712;2023-12-22T04:03:13;5;3;
80643;PMS5003;70010;60.224;24.712;2023-12-22T04:05:39;7;4;
80643;PMS5003;70010;60.224;24.712;2023-12-22T04:08:05;7;6;
80643;PMS5003;70010;60.224;24.712;2023-12-22T04:10:30;4;4;
80643;PMS5003;70010;60.224;24.712;2023-12-22T04:12:55;12;6;
80643;PMS5003;70010;60.224;24.712;2023-12-22T04:15:21;8;6;
80643;PMS5003;70010;60.224;24.712;2023-12-22T04:17:46;7;6;
80643;PMS5003;70010;60.224;24.712;2023-12-22T04:20:12;4;4;
80643;PMS5003;70010;60.224;24.712;2023-12-22T04:22:37;7;5;
80643;PMS5003;70010;60.224;24.712;2023-12-22T04:25:03;3;3;
80643;PMS5003;70010;60.224;24.712;2023-12-22T04:27:28;6;5;
80643;PMS5003;70010;60.224;24.712;2023-12-22T04:29:53;4;4;
80643;PMS5003;70010;60.224;24.712;2023-12-22T04:32:19;6;5;
80643;PMS5003;70010;60.224;24.712;2023-12-22T04:34:44;5;3;
80643;PMS5003;70010;60.224;24.712;2023-12-22T04:37:09;5;4;
80643;PMS5003;70010;60.224;24.712;2023-12-22T04:39:35;4;4;
80643;PMS5003;70010;60.224;24.712;2023-12-22T04:42:01;7;4;
80643;PMS5003;70010;60.224;24.712;2023-12-22T04:44:26;3;3;
80643;PMS5003;70010;60.224;24.712;2023-12-22T04:46:51;2;2;
80643;PMS5003;70010;60.224;24.712;2023-12-22T04:49:17;7;4;
80643;PMS5003;70010;60.224;24.712;2023-12-22T04:51:42;5;3;
80643;PMS5003;70010;60.224;24.712;2023-12-22T04:54:07;7;4;
80643;PMS5003;70010;60.224;24.712;2023-12-22T04:56:33;5;4;
80643;PMS5003;70010;60.224;24.712;2023-12-22T04:58:58;4;4;
80643;PMS5003;70010;60.224;24.712;2023-12-22T05:01:23;6;6;
80643;PMS5003;70010;60.224;24.712;2023-12-22T05:03:49;4;4;
80643;PMS5003;70010;60.224;24.712;2023-12-22T05:06:14;4;4;
80643;PMS5003;70010;60.224;24.712;2023-12-22T05:08:39;2;2;
80643;PMS5003;70010;60.224;24.712;2023-12-22T05:11:05;3;3;
80643;PMS5003;70010;60.224;24.712;2023-12-22T05:13:30;5;3;
80643;PMS5003;70010;60.224;24.712;2023-12-22T05:15:55;3;3;
80643;PMS5003;70010;60.224;24.712;2023-12-22T05:18:21;5;3;
80643;PMS5003;70010;60.224;24.712;2023-12-22T05:20:46;3;3;
80643;PMS5003;70010;60.224;24.712;2023-12-22T05:23:12;5;4;
80643;PMS5003;70010;60.224;24.712;2023-12-22T05:25:37;3;3;
80643;PMS5003;70010;60.224;24.712;2023-12-22T05:28:03;3;3;
80643;PMS5003;70010;60.224;24.712;2023-12-22T05:30:28;5;5;
80643;PMS5003;70010;60.224;24.712;2023-12-22T05:32:53;1;1;
80643;PMS5003;70010;60.224;24.712;2023-12-22T05:35:19;3;3;
80643;PMS5003;70010;60.224;24.712;2023-12-22T05:37:44;3;2;
80643;PMS5003;70010;60.224;24.712;2023-12-22T05:40:10;2;2;
80643;PMS5003;70010;60.224;24.712;2023-12-22T05:42:35;3;1;
80643;PMS5003;70010;60.224;24.712;2023-12-22T05:45:00;3;3;
80643;PMS5003;70010;60.224;24.712;2023-12-22T05:47:25;5;3;
80643;PMS5003;70010;60.224;24.712;2023-12-22T05:49:51;3;1;
80643;PMS5003;70010;60.224;24.712;2023-12-22T05:52:16;6;4;
80643;PMS5003;70010;60.224;24.712;2023-12-22T05:54:41;5;5;
80643;PMS5003;70010;60.224;24.712;2023-12-22T05:57:07;5;3;
80643;PMS5003;70010;60.224;24.712;2023-12-22T05:59:32;3;3;
80643;PMS5003;70010;60.224;24.712;2023-12-22T06:01:57;5;4;
80643;PMS5003;70010;60.224;24.712;2023-12-22T06:04:23;4;3;
80643;PMS5003;70010;60.224;24.712;2023-12-22T06:06:49;3;3;
80643;PMS5003;70010;60.224;24.712;2023-12-22T06:09:14;3;2;
80643;PMS5003;70010;60.224;24.712;2023-12-22T06:11:39;6;3;
80643;PMS5003;70010;60.224;24.712;2023-12-22T06:14:05;4;3;
80643;PMS5003;70010;60.224;24.712;2023-12-22T06:16:31;2;2;
80643;PMS5003;70010;60.224;24.712;2023-12-22T06:18:56;1;1;
80643;PMS5003;70010;60.224;24.712;2023-12-22T06:21:21;2;2;
80643;PMS5003;70010;60.224;24.712;2023-12-22T06:23:47;2;2;
80643;PMS5003;70010;60.224;24.712;2023-12-22T06:26:12;1;1;
80643;PMS5003;70010;60.224;24.712;2023-12-22T06:28:37;2;2;
80643;PMS5003;70010;60.224;24.712;2023-12-22T06:31:03;4;3;
80643;PMS5003;70010;60.224;24.712;2023-12-22T06:33:28;5;4;
80643;PMS5003;70010;60.224;24.712;2023-12-22T06:35:53;2;2;
80643;PMS5003;70010;60.224;24.712;2023-12-22T06:38:19;4;4;
80643;PMS5003;70010;60.224;24.712;2023-12-22T06:40:44;4;4;
80643;PMS5003;70010;60.224;24.712;2023-12-22T06:43:09;6;3;
80643;PMS5003;70010;60.224;24.712;2023-12-22T06:45:35;5;4;
80643;PMS5003;70010;60.224;24.712;2023-12-22T06:48:00;4;3;
80643;PMS5003;70010;60.224;24.712;2023-12-22T06:50:25;2;2;
80643;PMS5003;70010;60.224;24.712;2023-12-22T06:52:51;3;3;
80643;PMS5003;70010;60.224;24.712;2023-12-22T06:55:16;2;2;
80643;PMS5003;70010;60.224;24.712;2023-12-22T06:57:41;2;2;
80643;PMS5003;70010;60.224;24.712;2023-12-22T07:00:07;2;2;
80643;PMS5003;70010;60.224;24.712;2023-12-22T07:02:32;2;0;
80643;PMS5003;70010;60.224;24.712;2023-12-22T07:05:01;3;2;
80643;PMS5003;70010;60.224;24.712;2023-12-22T07:07:23;3;2;
80643;PMS5003;70010;60.224;24.712;2023-12-22T07:09:48;3;2;
80643;PMS5003;70010;60.224;24.712;2023-12-22T07:12:13;1;1;
80643;PMS5003;70010;60.224;24.712;2023-12-22T07:14:39;3;2;
80643;PMS5003;70010;60.224;24.712;2023-12-22T07:17:05;1;1;
80643;PMS5003;70010;60.224;24.712;2023-12-22T07:19:30;2;2;
80643;PMS5003;70010;60.224;24.712;2023-12-22T07:21:55;1;1;
80643;PMS5003;70010;60.224;24.712;2023-12-22T07:24:21;3;3;
80643;PMS5003;70010;60.224;24.712;2023-12-22T07:26:46;2;2;
80643;PMS5003;70010;60.224;24.712;2023-12-22T07:29:11;1;1;
80643;PMS5003;70010;60.224;24.712;2023-12-22T07:31:37;3;1;
80643;PMS5003;70010;60.224;24.712;2023-12-22T07:34:02;1;1;
80643;PMS5003;70010;60.224;24.712;2023-12-22T07:36:27;1;1;
80643;PMS5003;70010;60.224;24.712;2023-12-22T07:38:53;2;2;
80643;PMS5003;70010;60.224;24.712;2023-12-22T07:41:18;5;1;
80643;PMS5003;70010;60.224;24.712;2023-12-22T07:43:43;4;2;
80643;PMS5003;70010;60.224;24.712;2023-12-22T07:48:35;2;2;
80643;PMS5003;70010;60.224;24.712;2023-12-22T07:51:00;4;2;
80643;PMS5003;70010;60.224;24.712;2023-12-22T07:53:26;3;3;
80643;PMS5003;70010;60.224;24.712;2023-12-22T07:55:51;4;2;
80643;PMS5003;70010;60.224;24.712;2023-12-22T07:58:16;5;2;
80643;PMS5003;70010;60.224;24.712;2023-12-22T08:00:41;6;3;
80643;PMS5003;70010;60.224;24.712;2023-12-22T08:03:07;3;3;
80643;PMS5003;70010;60.224;24.712;2023-12-22T08:05:32;3;2;
80643;PMS5003;70010;60.224;24.712;2023-12-22T08:07:57;5;4;
80643;PMS5003;70010;60.224;24.712;2023-12-22T08:10:23;4;3;
80643;PMS5003;70010;60.224;24.712;2023-12-22T08:12:48;4;4;
80643;PMS5003;70010;60.224;24.712;2023-12-22T08:15:13;3;3;
80643;PMS5003;70010;60.224;24.712;2023-12-22T08:20:04;4;3;
80643;PMS5003;70010;60.224;24.712;2023-12-22T08:22:29;5;5;
80643;PMS5003;70010;60.224;24.712;2023-12-22T08:24:55;6;5;
80643;PMS5003;70010;60.224;24.712;2023-12-22T08:27:20;4;4;
80643;PMS5003;70010;60.224;24.712;2023-12-22T08:29:45;4;2;
80643;PMS5003;70010;60.224;24.712;2023-12-22T08:32:11;2;2;
80643;PMS5003;70010;60.224;24.712;2023-12-22T08:34:36;6;4;
80643;PMS5003;70010;60.224;24.712;2023-12-22T08:37:01;3;3;
80643;PMS5003;70010;60.224;24.712;2023-12-22T08:39:26;5;4;
80643;PMS5003;70010;60.224;24.712;2023-12-22T08:41:52;4;4;
80643;PMS5003;70010;60.224;24.712;2023-12-22T08:44:17;5;4;
80643;PMS5003;70010;60.224;24.712;2023-12-22T08:46:43;4;4;
80643;PMS5003;70010;60.224;24.712;2023-12-22T08:49:08;5;5;
80643;PMS5003;70010;60.224;24.712;2023-12-22T08:51:33;4;4;
80643;PMS5003;70010;60.224;24.712;2023-12-22T08:53:58;4;4;
80643;PMS5003;70010;60.224;24.712;2023-12-22T08:56:24;3;3;
80643;PMS5003;70010;60.224;24.712;2023-12-22T08:58:50;3;3;
80643;PMS5003;70010;60.224;24.712;2023-12-22T09:01:14;3;3;
80643;PMS5003;70010;60.224;24.712;2023-12-22T09:03:40;3;3;
80643;PMS5003;70010;60.224;24.712;2023-12-22T09:06:05;4;2;
80643;PMS5003;70010;60.224;24.712;2023-12-22T09:08:30;4;4;
80643;PMS5003;70010;60.224;24.712;2023-12-22T09:10:56;3;3;
80643;PMS5003;70010;60.224;24.712;2023-12-22T09:13:21;3;2;
80643;PMS5003;70010;60.224;24.712;2023-12-22T09:15:46;3;2;
80643;PMS5003;70010;60.224;24.712;2023-12-22T09:18:12;3;3;
80643;PMS5003;70010;60.224;24.712;2023-12-22T09:20:37;3;1;
80643;PMS5003;70010;60.224;24.712;2023-12-22T09:23:02;2;2;
80643;PMS5003;70010;60.224;24.712;2023-12-22T09:25:28;3;3;
80643;PMS5003;70010;60.224;24.712;2023-12-22T09:27:53;2;2;
80643;PMS5003;70010;60.224;24.712;2023-12-22T09:30:18;2;2;
80643;PMS5003;70010;60.224;24.712;2023-12-22T09:32:44;3;2;
80643;PMS5003;70010;60.224;24.712;2023-12-22T09:35:09;3;3;
80643;PMS5003;70010;60.224;24.712;2023-12-22T09:37:34;3;3;
80643;PMS5003;70010;60.224;24.712;2023-12-22T09:40:00;3;2;
80643;PMS5003;70010;60.224;24.712;2023-12-22T09:42:25;4;2;
80643;PMS5003;70010;60.224;24.712;2023-12-22T09:44:51;2;1;
80643;PMS5003;70010;60.224;24.712;2023-12-22T09:47:16;2;2;
80643;PMS5003;70010;60.224;24.712;2023-12-22T09:49:41;5;3;
80643;PMS5003;70010;60.224;24.712;2023-12-22T09:52:06;1;1;
80643;PMS5003;70010;60.224;24.712;2023-12-22T09:54:32;2;2;
80643;PMS5003;70010;60.224;24.712;2023-12-22T09:56:57;2;2;
80643;PMS5003;70010;60.224;24.712;2023-12-22T09:59:22;2;2;
80643;PMS5003;70010;60.224;24.712;2023-12-22T10:01:48;3;3;
80643;PMS5003;70010;60.224;24.712;2023-12-22T10:04:13;4;4;
80643;PMS5003;70010;60.224;24.712;2023-12-22T10:06:38;4;3;
80643;PMS5003;70010;60.224;24.712;2023-12-22T10:09:04;2;2;
80643;PMS5003;70010;60.224;24.712;2023-12-22T10:11:29;2;2;
80643;PMS5003;70010;60.224;24.712;2023-12-22T10:13:55;4;2;
80643;PMS5003;70010;60.224;24.712;2023-12-22T10:16:20;4;3;
80643;PMS5003;70010;60.224;24.712;2023-12-22T10:18:45;2;2;
80643;PMS5003;70010;60.224;24.712;2023-12-22T10:21:11;4;4;
80643;PMS5003;70010;60.224;24.712;2023-12-22T10:23:36;7;5;
80643;PMS5003;70010;60.224;24.712;2023-12-22T10:26:02;6;6;
80643;PMS5003;70010;60.224;24.712;2023-12-22T10:28:27;4;4;
80643;PMS5003;70010;60.224;24.712;2023-12-22T10:30:52;3;3;
80643;PMS5003;70010;60.224;24.712;2023-12-22T10:33:18;2;2;
80643;PMS5003;70010;60.224;24.712;2023-12-22T10:35:43;4;3;
80643;PMS5003;70010;60.224;24.712;2023-12-22T10:38:08;3;3;
80643;PMS5003;70010;60.224;24.712;2023-12-22T10:40:34;3;3;
80643;PMS5003;70010;60.224;24.712;2023-12-22T10:42:59;2;2;
80643;PMS5003;70010;60.224;24.712;2023-12-22T10:45:24;2;2;
80643;PMS5003;70010;60.224;24.712;2023-12-22T10:47:50;5;3;
80643;PMS5003;70010;60.224;24.712;2023-12-22T10:50:15;2;2;
80643;PMS5003;70010;60.224;24.712;2023-12-22T10:52:40;3;3;
80643;PMS5003;70010;60.224;24.712;2023-12-22T10:55:06;3;3;
80643;PMS5003;70010;60.224;24.712;2023-12-22T10:57:31;4;3;
80643;PMS5003;70010;60.224;24.712;2023-12-22T10:59:56;2;2;
80643;PMS5003;70010;60.224;24.712;2023-12-22T11:02:22;2;2;
80643;PMS5003;70010;60.224;24.712;2023-12-22T11:04:48;7;7;
80643;PMS5003;70010;60.224;24.712;2023-12-22T11:07:12;3;3;
80643;PMS5003;70010;60.224;24.712;2023-12-22T11:09:38;4;2;
80643;PMS5003;70010;60.224;24.712;2023-12-22T11:12:03;1;1;
80643;PMS5003;70010;60.224;24.712;2023-12-22T11:14:29;1;1;
80643;PMS5003;70010;60.224;24.712;2023-12-22T11:16:54;2;2;
80643;PMS5003;70010;60.224;24.712;2023-12-22T11:19:19;3;3;
80643;PMS5003;70010;60.224;24.712;2023-12-22T11:21:44;2;2;
80643;PMS5003;70010;60.224;24.712;2023-12-22T11:24:10;2;2;
80643;PMS5003;70010;60.224;24.712;2023-12-22T11:26:35;2;2;
80643;PMS5003;70010;60.224;24.712;2023-12-22T11:29:00;3;1;
80643;PMS5003;70010;60.224;24.712;2023-12-22T11:31:26;3;3;
80643;PMS5003;70010;60.224;24.712;2023-12-22T11:33:51;2;2;
80643;PMS5003;70010;60.224;24.712;2023-12-22T11:36:17;1;1;
80643;PMS5003;70010;60.224;24.712;2023-12-22T11:38:42;2;1;
80643;PMS5003;70010;60.224;24.712;2023-12-22T11:41:07;1;1;
80643;PMS5003;70010;60.224;24.712;2023-12-22T11:43:32;1;1;
80643;PMS5003;70010;60.224;24.712;2023-12-22T11:46:00;2;2;
80643;PMS5003;70010;60.224;24.712;2023-12-22T11:48:23;2;2;
80643;PMS5003;70010;60.224;24.712;2023-12-22T11:50:48;2;1;
80643;PMS5003;70010;60.224;24.712;2023-12-22T12:02:55;1;1;
80643;PMS5003;70010;60.224;24.712;2023-12-22T12:05:20;1;1;
80643;PMS5003;70010;60.224;24.712;2023-12-22T12:07:46;1;1;
80643;PMS5003;70010;60.224;24.712;2023-12-22T12:10:11;2;2;
80643;PMS5003;70010;60.224;24.712;2023-12-22T12:12:36;2;2;
80643;PMS5003;70010;60.224;24.712;2023-12-22T12:15:06;2;2;
80643;PMS5003;70010;60.224;24.712;2023-12-22T12:17:27;2;2;
80643;PMS5003;70010;60.224;24.712;2023-12-22T12:19:52;4;4;
80643;PMS5003;70010;60.224;24.712;2023-12-22T12:22:17;2;2;
80643;PMS5003;70010;60.224;24.712;2023-12-22T12:24:43;2;2;
80643;PMS5003;70010;60.224;24.712;2023-12-22T12:27:09;5;3;
80643;PMS5003;70010;60.224;24.712;2023-12-22T12:29:33;2;2;
80643;PMS5003;70010;60.224;24.712;2023-12-22T12:32:02;3;3;
80643;PMS5003;70010;60.224;24.712;2023-12-22T12:34:24;2;2;
80643;PMS5003;70010;60.224;24.712;2023-12-22T12:36:49;3;2;
80643;PMS5003;70010;60.224;24.712;2023-12-22T12:39:15;2;2;
80643;PMS5003;70010;60.224;24.712;2023-12-22T12:41:40;2;2;
80643;PMS5003;70010;60.224;24.712;2023-12-22T12:44:06;2;2;
80643;PMS5003;70010;60.224;24.712;2023-12-22T12:46:32;2;2;
80643;PMS5003;70010;60.224;24.712;2023-12-22T12:51:21;2;2;
80643;PMS5003;70010;60.224;24.712;2023-12-22T12:53:47;4;2;
80643;PMS5003;70010;60.224;24.712;2023-12-22T12:56:12;2;2;
80643;PMS5003;70010;60.224;24.712;2023-12-22T12:58:37;2;1;
80643;PMS5003;70010;60.224;24.712;2023-12-22T13:01:07;2;2;
80643;PMS5003;70010;60.224;24.712;2023-12-22T13:03:28;3;3;
80643;PMS5003;70010;60.224;24.712;2023-12-22T13:08:19;3;3;
80643;PMS5003;70010;60.224;24.712;2023-12-22T13:10:44;5;3;
80643;PMS5003;70010;60.224;24.712;2023-12-22T13:13:10;2;2;
80643;PMS5003;70010;60.224;24.712;2023-12-22T13:15:35;3;3;
80643;PMS5003;70010;60.224;24.712;2023-12-22T13:18:00;4;3;
80643;PMS5003;70010;60.224;24.712;2023-12-22T13:20:26;2;2;
80643;PMS5003;70010;60.224;24.712;2023-12-22T13:22:51;2;2;
80643;PMS5003;70010;60.224;24.712;2023-12-22T13:25:16;3;3;
80643;PMS5003;70010;60.224;24.712;2023-12-22T13:27:45;5;3;
80643;PMS5003;70010;60.224;24.712;2023-12-22T13:30:07;2;2;
80643;PMS5003;70010;60.224;24.712;2023-12-22T13:32:32;2;2;
80643;PMS5003;70010;60.224;24.712;2023-12-22T13:34:58;3;3;
80643;PMS5003;70010;60.224;24.712;2023-12-22T13:37:23;5;3;
80643;PMS5003;70010;60.224;24.712;2023-12-22T13:39:48;3;3;
80643;PMS5003;70010;60.224;24.712;2023-12-22T13:42:14;2;2;
80643;PMS5003;70010;60.224;24.712;2023-12-22T13:44:41;4;3;
80643;PMS5003;70010;60.224;24.712;2023-12-22T13:47:04;2;2;
80643;PMS5003;70010;60.224;24.712;2023-12-22T13:49:33;4;4;
80643;PMS5003;70010;60.224;24.712;2023-12-22T13:51:55;5;4;
80643;PMS5003;70010;60.224;24.712;2023-12-22T13:54:21;6;3;
80643;PMS5003;70010;60.224;24.712;2023-12-22T13:56:46;4;4;
80643;PMS5003;70010;60.224;24.712;2023-12-22T13:59:11;5;4;
80643;PMS5003;70010;60.224;24.712;2023-12-22T14:01:36;2;2;
80643;PMS5003;70010;60.224;24.712;2023-12-22T14:04:02;5;5;
80643;PMS5003;70010;60.224;24.712;2023-12-22T14:06:27;6;4;
80643;PMS5003;70010;60.224;24.712;2023-12-22T14:08:52;3;3;
80643;PMS5003;70010;60.224;24.712;2023-12-22T14:11:17;4;4;
80643;PMS5003;70010;60.224;24.712;2023-12-22T14:13:43;6;5;
80643;PMS5003;70010;60.224;24.712;2023-12-22T14:16:08;5;5;
80643;PMS5003;70010;60.224;24.712;2023-12-22T14:18:34;7;4;
80643;PMS5003;70010;60.224;24.712;2023-12-22T14:20:59;6;4;
80643;PMS5003;70010;60.224;24.712;2023-12-22T14:23:25;3;3;
80643;PMS5003;70010;60.224;24.712;2023-12-22T14:25:50;6;6;
80643;PMS5003;70010;60.224;24.712;2023-12-22T14:28:15;4;3;
80643;PMS5003;70010;60.224;24.712;2023-12-22T14:30:41;5;4;
80643;PMS5003;70010;60.224;24.712;2023-12-22T14:33:06;6;5;
80643;PMS5003;70010;60.224;24.712;2023-12-22T14:35:31;3;3;
80643;PMS5003;70010;60.224;24.712;2023-12-22T14:37:57;5;3;
80643;PMS5003;70010;60.224;24.712;2023-12-22T14:40:22;5;5;
80643;PMS5003;70010;60.224;24.712;2023-12-22T14:42:47;4;3;
80643;PMS5003;70010;60.224;24.712;2023-12-22T14:45:13;5;5;
80643;PMS5003;70010;60.224;24.712;2023-12-22T14:47:38;3;3;
80643;PMS5003;70010;60.224;24.712;2023-12-22T14:50:04;7;7;
80643;PMS5003;70010;60.224;24.712;2023-12-22T14:52:29;4;4;
80643;PMS5003;70010;60.224;24.712;2023-12-22T14:54:54;4;4;
80643;PMS5003;70010;60.224;24.712;2023-12-22T14:57:19;8;5;
80643;PMS5003;70010;60.224;24.712;2023-12-22T14:59:45;5;5;
80643;PMS5003;70010;60.224;24.712;2023-12-22T15:02:10;8;5;
80643;PMS5003;70010;60.224;24.712;2023-12-22T15:04:35;3;3;
80643;PMS5003;70010;60.224;24.712;2023-12-22T15:07:01;3;3;
80643;PMS5003;70010;60.224;24.712;2023-12-22T15:09:26;3;3;
80643;PMS5003;70010;60.224;24.712;2023-12-22T15:11:51;6;5;
80643;PMS5003;70010;60.224;24.712;2023-12-22T15:14:17;4;4;
80643;PMS5003;70010;60.224;24.712;2023-12-22T15:16:43;10;6;
80643;PMS5003;70010;60.224;24.712;2023-12-22T15:19:08;5;5;
80643;PMS5003;70010;60.224;24.712;2023-12-22T15:21:33;6;6;
80643;PMS5003;70010;60.224;24.712;2023-12-22T15:23:58;8;7;
80643;PMS5003;70010;60.224;24.712;2023-12-22T15:26:24;6;6;
80643;PMS5003;70010;60.224;24.712;2023-12-22T15:28:49;9;7;
80643;PMS5003;70010;60.224;24.712;2023-12-22T15:31:14;11;6;
80643;PMS5003;70010;60.224;24.712;2023-12-22T15:33:40;6;6;
80643;PMS5003;70010;60.224;24.712;2023-12-22T15:36:05;9;6;
80643;PMS5003;70010;60.224;24.712;2023-12-22T15:38:31;6;6;
80643;PMS5003;70010;60.224;24.712;2023-12-22T15:40:59;10;7;
80643;PMS5003;70010;60.224;24.712;2023-12-22T15:43:22;13;8;
80643;PMS5003;70010;60.224;24.712;2023-12-22T15:45:47;11;9;
80643;PMS5003;70010;60.224;24.712;2023-12-22T15:48:13;9;7;
80643;PMS5003;70010;60.224;24.712;2023-12-22T15:50:37;9;8;
80643;PMS5003;70010;60.224;24.712;2023-12-22T15:53:03;17;10;
80643;PMS5003;70010;60.224;24.712;2023-12-22T15:55:28;12;9;
80643;PMS5003;70010;60.224;24.712;2023-12-22T15:57:53;13;11;
80643;PMS5003;70010;60.224;24.712;2023-12-22T16:00:19;11;10;
80643;PMS5003;70010;60.224;24.712;2023-12-22T16:02:43;11;10;
80643;PMS5003;70010;60.224;24.712;2023-12-22T16:05:09;14;10;
80643;PMS5003;70010;60.224;24.712;2023-12-22T16:07:34;12;11;
80643;PMS5003;70010;60.224;24.712;2023-12-22T16:09:59;13;11;
80643;PMS5003;70010;60.224;24.712;2023-12-22T16:12:25;13;12;
80643;PMS5003;70010;60.224;24.712;2023-12-22T16:14:50;13;11;
80643;PMS5003;70010;60.224;24.712;2023-12-22T16:17:15;12;12;
80643;PMS5003;70010;60.224;24.712;2023-12-22T16:19:40;9;9;
80643;PMS5003;70010;60.224;24.712;2023-12-22T16:22:06;22;10;
80643;PMS5003;70010;60.224;24.712;2023-12-22T16:24:31;10;8;
80643;PMS5003;70010;60.224;24.712;2023-12-22T16:26:56;11;10;
80643;PMS5003;70010;60.224;24.712;2023-12-22T16:29:21;12;11;
80643;PMS5003;70010;60.224;24.712;2023-12-22T16:31:47;14;11;
80643;PMS5003;70010;60.224;24.712;2023-12-22T16:34:12;11;9;